sensor_id;sensor_type;location;lat;lon;timestamp;temperature;humidity
1055;DHT22;516;51.482;7.120;2023-04-03T00:00:54;-0.10;99.90
1055;DHT22;516;51.482;7.120;2023-04-03T00:03:20;-0.10;99.90
1055;DHT22;516;51.482;7.120;2023-04-03T00:09:07;-0.10;99.90
1055;DHT22;516;51.482;7.120;2023-04-03T00:14:55;-0.30;99.90
1055;DHT22;516;51.482;7.120;2023-04-03T00:20:43;-0.30;99.90
1055;DHT22;516;51.482;7.120;2023-04-03T00:26:30;-0.30;99.90
1055;DHT22;516;51.482;7.120;2023-04-03T00:32:18;-0.40;99.90
1055;DHT22;516;51.482;7.120;2023-04-03T00:38:06;-0.60;99.90
1055;DHT22;516;51.482;7.120;2023-04-03T00:43:54;-0.70;99.90
1055;DHT22;516;51.482;7.120;2023-04-03T00:49:42;-0.70;99.90
1055;DHT22;516;51.482;7.120;2023-04-03T00:55:30;-0.70;99.90
1055;DHT22;516;51.482;7.120;2023-04-03T01:11:12;-0.80;99.90
1055;DHT22;516;51.482;7.120;2023-04-03T01:16:59;-0.80;99.90
1055;DHT22;516;51.482;7.120;2023-04-03T01:28:44;-0.60;99.90
1055;DHT22;516;51.482;7.120;2023-04-03T01:34:32;-0.30;99.90
1055;DHT22;516;51.482;7.120;2023-04-03T01:40:20;-0.30;99.90
1055;DHT22;516;51.482;7.120;2023-04-03T01:46:08;0.10;99.90
1055;DHT22;516;51.482;7.120;2023-04-03T01:51:55;0.20;99.90
1055;DHT22;516;51.482;7.120;2023-04-03T01:57:43;0.20;99.90
1055;DHT22;516;51.482;7.120;2023-04-03T02:03:20;0.10;99.90
1055;DHT22;516;51.482;7.120;2023-04-03T02:09:08;-0.20;99.90
1055;DHT22;516;51.482;7.120;2023-04-03T02:14:55;-0.50;99.90
1055;DHT22;516;51.482;7.120;2023-04-03T02:20:43;-0.60;99.90
1055;DHT22;516;51.482;7.120;2023-04-03T02:26:31;-0.80;99.90
1055;DHT22;516;51.482;7.120;2023-04-03T02:32:19;-0.90;99.90
1055;DHT22;516;51.482;7.120;2023-04-03T02:38:06;-0.90;99.90
1055;DHT22;516;51.482;7.120;2023-04-03T02:43:54;-0.70;99.90
1055;DHT22;516;51.482;7.120;2023-04-03T02:49:42;-0.40;99.90
1055;DHT22;516;51.482;7.120;2023-04-03T02:55:32;0.00;99.90
1055;DHT22;516;51.482;7.120;2023-04-03T03:11:13;0.30;99.90
1055;DHT22;516;51.482;7.120;2023-04-03T03:17:02;0.40;99.90
1055;DHT22;516;51.482;7.120;2023-04-03T03:22:49;0.70;99.90
1055;DHT22;516;51.482;7.120;2023-04-03T03:28:38;0.60;99.90
1055;DHT22;516;51.482;7.120;2023-04-03T03:34:26;0.70;99.90
1055;DHT22;516;51.482;7.120;2023-04-03T03:40:14;0.70;99.90
1055;DHT22;516;51.482;7.120;2023-04-03T03:46:02;0.60;99.90
1055;DHT22;516;51.482;7.120;2023-04-03T03:51:49;0.60;99.90
1055;DHT22;516;51.482;7.120;2023-04-03T03:57:38;0.80;99.90
1055;DHT22;516;51.482;7.120;2023-04-03T04:03:20;0.70;99.90
1055;DHT22;516;51.482;7.120;2023-04-03T04:09:09;0.80;99.90
1055;DHT22;516;51.482;7.120;2023-04-03T04:14:57;0.70;99.90
1055;DHT22;516;51.482;7.120;2023-04-03T04:20:45;0.60;99.90
1055;DHT22;516;51.482;7.120;2023-04-03T04:26:33;0.60;99.90
1055;DHT22;516;51.482;7.120;2023-04-03T04:32:21;0.50;99.90
1055;DHT22;516;51.482;7.120;2023-04-03T04:38:08;0.40;99.90
1055;DHT22;516;51.482;7.120;2023-04-03T04:43:56;0.40;99.90
1055;DHT22;516;51.482;7.120;2023-04-03T04:49:44;0.50;99.90
1055;DHT22;516;51.482;7.120;2023-04-03T04:55:31;0.30;99.90
1055;DHT22;516;51.482;7.120;2023-04-03T05:11:09;0.20;99.90
1055;DHT22;516;51.482;7.120;2023-04-03T05:16:57;0.10;99.90
1055;DHT22;516;51.482;7.120;2023-04-03T05:22:45;0.20;99.90
1055;DHT22;516;51.482;7.120;2023-04-03T05:28:34;0.30;99.90
1055;DHT22;516;51.482;7.120;2023-04-03T05:34:22;0.30;99.90
1055;DHT22;516;51.482;7.120;2023-04-03T05:40:09;0.40;99.90
1055;DHT22;516;51.482;7.120;2023-04-03T05:45:38;0.70;99.90
1055;DHT22;516;51.482;7.120;2023-04-03T05:51:30;0.90;99.90
1055;DHT22;516;51.482;7.120;2023-04-03T05:57:19;1.90;99.90
1055;DHT22;516;51.482;7.120;2023-04-03T06:00:22;2.10;99.90
1055;DHT22;516;51.482;7.120;2023-04-03T06:13:07;2.00;99.90
1055;DHT22;516;51.482;7.120;2023-04-03T06:18:55;2.00;99.90
1055;DHT22;516;51.482;7.120;2023-04-03T06:24:43;2.60;99.90
1055;DHT22;516;51.482;7.120;2023-04-03T06:30:31;3.70;99.90
1055;DHT22;516;51.482;7.120;2023-04-03T06:36:20;4.00;99.90
1055;DHT22;516;51.482;7.120;2023-04-03T06:42:08;4.10;99.90
1055;DHT22;516;51.482;7.120;2023-04-03T06:47:56;4.60;97.40
1055;DHT22;516;51.482;7.120;2023-04-03T06:53:44;5.40;89.60
1055;DHT22;516;51.482;7.120;2023-04-03T06:59:33;5.10;67.30
1055;DHT22;516;51.482;7.120;2023-04-03T07:08:44;5.30;55.40
1055;DHT22;516;51.482;7.120;2023-04-03T07:14:31;5.60;48.60
1055;DHT22;516;51.482;7.120;2023-04-03T07:20:19;5.80;44.80
1055;DHT22;516;51.482;7.120;2023-04-03T07:26:07;5.80;41.60
1055;DHT22;516;51.482;7.120;2023-04-03T07:31:55;6.10;40.70
1055;DHT22;516;51.482;7.120;2023-04-03T07:37:44;6.10;36.00
1055;DHT22;516;51.482;7.120;2023-04-03T07:43:31;6.70;32.90
1055;DHT22;516;51.482;7.120;2023-04-03T07:49:20;6.40;33.10
1055;DHT22;516;51.482;7.120;2023-04-03T07:55:10;6.50;29.10
1055;DHT22;516;51.482;7.120;2023-04-03T08:00:57;7.20;26.60
1055;DHT22;516;51.482;7.120;2023-04-03T08:06:56;7.70;25.70
1055;DHT22;516;51.482;7.120;2023-04-03T08:12:46;7.60;22.40
1055;DHT22;516;51.482;7.120;2023-04-03T08:18:34;7.20;21.70
1055;DHT22;516;51.482;7.120;2023-04-03T08:24:21;7.70;20.60
1055;DHT22;516;51.482;7.120;2023-04-03T08:30:08;7.40;20.90
1055;DHT22;516;51.482;7.120;2023-04-03T08:35:55;7.50;20.30
1055;DHT22;516;51.482;7.120;2023-04-03T08:41:44;7.60;19.20
1055;DHT22;516;51.482;7.120;2023-04-03T08:47:40;8.00;17.30
1055;DHT22;516;51.482;7.120;2023-04-03T08:53:34;8.30;11.60
1055;DHT22;516;51.482;7.120;2023-04-03T08:59:27;8.60;10.40
1055;DHT22;516;51.482;7.120;2023-04-03T09:15:27;8.30;1.00
1055;DHT22;516;51.482;7.120;2023-04-03T09:21:36;8.50;1.00
1055;DHT22;516;51.482;7.120;2023-04-03T09:27:43;8.50;1.00
1055;DHT22;516;51.482;7.120;2023-04-03T09:33:30;9.10;1.00
1055;DHT22;516;51.482;7.120;2023-04-03T09:39:23;9.90;1.00
1055;DHT22;516;51.482;7.120;2023-04-03T09:51:47;9.70;1.00
1055;DHT22;516;51.482;7.120;2023-04-03T09:57:36;8.90;1.00
1055;DHT22;516;51.482;7.120;2023-04-03T10:03:28;8.90;1.00
1055;DHT22;516;51.482;7.120;2023-04-03T10:09:30;9.20;1.00
1055;DHT22;516;51.482;7.120;2023-04-03T10:12:33;9.40;1.00
1055;DHT22;516;51.482;7.120;2023-04-03T10:25:00;10.10;1.00
1055;DHT22;516;51.482;7.120;2023-04-03T10:38:15;9.70;1.00
1055;DHT22;516;51.482;7.120;2023-04-03T10:57:38;10.30;1.00
1055;DHT22;516;51.482;7.120;2023-04-03T11:03:30;10.80;1.00
1055;DHT22;516;51.482;7.120;2023-04-03T11:09:24;10.60;1.00
1055;DHT22;516;51.482;7.120;2023-04-03T11:18:27;10.80;1.00
1055;DHT22;516;51.482;7.120;2023-04-03T11:40:49;9.90;1.00
1055;DHT22;516;51.482;7.120;2023-04-03T11:46:53;10.90;1.00
1055;DHT22;516;51.482;7.120;2023-04-03T11:58:33;11.60;1.00
1055;DHT22;516;51.482;7.120;2023-04-03T12:04:24;10.50;1.00
1055;DHT22;516;51.482;7.120;2023-04-03T12:10:17;11.00;1.00
1055;DHT22;516;51.482;7.120;2023-04-03T12:16:07;10.80;1.00
1055;DHT22;516;51.482;7.120;2023-04-03T12:27:44;11.70;1.00
1055;DHT22;516;51.482;7.120;2023-04-03T12:51:56;11.50;1.00
1055;DHT22;516;51.482;7.120;2023-04-03T12:57:44;10.60;1.00
1055;DHT22;516;51.482;7.120;2023-04-03T13:03:31;10.90;1.00
1055;DHT22;516;51.482;7.120;2023-04-03T13:19:16;12.00;1.00
1055;DHT22;516;51.482;7.120;2023-04-03T13:25:07;11.60;1.00
1055;DHT22;516;51.482;7.120;2023-04-03T13:28:00;11.80;1.00
1055;DHT22;516;51.482;7.120;2023-04-03T13:30:28;11.40;1.00
1055;DHT22;516;51.482;7.120;2023-04-03T13:36:20;11.80;1.00
1055;DHT22;516;51.482;7.120;2023-04-03T13:42:30;11.70;1.00
1055;DHT22;516;51.482;7.120;2023-04-03T13:48:20;12.00;1.00
1055;DHT22;516;51.482;7.120;2023-04-03T13:54:33;12.60;1.00
1055;DHT22;516;51.482;7.120;2023-04-03T14:07:14;13.00;1.00
1055;DHT22;516;51.482;7.120;2023-04-03T14:13:02;12.50;1.00
1055;DHT22;516;51.482;7.120;2023-04-03T14:18:51;13.30;1.00
1055;DHT22;516;51.482;7.120;2023-04-03T14:24:39;12.70;1.00
1055;DHT22;516;51.482;7.120;2023-04-03T14:30:33;12.50;1.00
1055;DHT22;516;51.482;7.120;2023-04-03T14:36:23;11.40;1.00
1055;DHT22;516;51.482;7.120;2023-04-03T14:42:16;11.10;1.00
1055;DHT22;516;51.482;7.120;2023-04-03T14:48:04;10.50;1.00
1055;DHT22;516;51.482;7.120;2023-04-03T14:53:53;11.30;1.00
1055;DHT22;516;51.482;7.120;2023-04-03T14:59:44;10.80;1.00
1055;DHT22;516;51.482;7.120;2023-04-03T15:05:32;10.40;1.00
1055;DHT22;516;51.482;7.120;2023-04-03T15:11:22;10.50;1.00
1055;DHT22;516;51.482;7.120;2023-04-03T15:17:16;10.50;1.00
1055;DHT22;516;51.482;7.120;2023-04-03T15:23:04;10.40;1.00
1055;DHT22;516;51.482;7.120;2023-04-03T15:28:52;10.70;1.00
1055;DHT22;516;51.482;7.120;2023-04-03T15:34:40;10.30;1.00
1055;DHT22;516;51.482;7.120;2023-04-03T15:40:28;10.50;1.00
1055;DHT22;516;51.482;7.120;2023-04-03T15:46:15;10.10;1.00
1055;DHT22;516;51.482;7.120;2023-04-03T15:52:03;10.60;1.00
1055;DHT22;516;51.482;7.120;2023-04-03T15:57:52;10.70;1.00
1055;DHT22;516;51.482;7.120;2023-04-03T16:03:41;11.20;1.00
1055;DHT22;516;51.482;7.120;2023-04-03T16:12:54;11.90;1.00
1055;DHT22;516;51.482;7.120;2023-04-03T16:18:42;10.60;1.00
1055;DHT22;516;51.482;7.120;2023-04-03T16:24:30;10.30;1.00
1055;DHT22;516;51.482;7.120;2023-04-03T16:30:17;11.00;1.00
1055;DHT22;516;51.482;7.120;2023-04-03T16:36:06;10.90;1.00
1055;DHT22;516;51.482;7.120;2023-04-03T16:41:54;10.70;1.00
1055;DHT22;516;51.482;7.120;2023-04-03T16:47:41;10.40;1.00
1055;DHT22;516;51.482;7.120;2023-04-03T16:53:29;9.80;1.00
1055;DHT22;516;51.482;7.120;2023-04-03T16:59:17;10.20;1.00
1055;DHT22;516;51.482;7.120;2023-04-03T17:05:05;10.00;1.00
1055;DHT22;516;51.482;7.120;2023-04-03T17:10:45;9.30;1.00
1055;DHT22;516;51.482;7.120;2023-04-03T17:16:34;9.60;1.00
1055;DHT22;516;51.482;7.120;2023-04-03T17:22:23;7.90;1.00
1055;DHT22;516;51.482;7.120;2023-04-03T17:28:10;7.70;1.00
1055;DHT22;516;51.482;7.120;2023-04-03T17:33:58;7.50;1.00
1055;DHT22;516;51.482;7.120;2023-04-03T17:39:49;7.20;1.00
1055;DHT22;516;51.482;7.120;2023-04-03T17:45:37;7.10;1.00
1055;DHT22;516;51.482;7.120;2023-04-03T17:51:25;7.00;1.00
1055;DHT22;516;51.482;7.120;2023-04-03T17:57:13;6.80;1.00
1055;DHT22;516;51.482;7.120;2023-04-03T18:03:01;6.70;1.00
1055;DHT22;516;51.482;7.120;2023-04-03T18:19:13;6.40;1.00
1055;DHT22;516;51.482;7.120;2023-04-03T18:25:00;6.40;1.00
1055;DHT22;516;51.482;7.120;2023-04-03T18:30:47;6.10;1.00
1055;DHT22;516;51.482;7.120;2023-04-03T18:36:35;6.20;1.00
1055;DHT22;516;51.482;7.120;2023-04-03T18:42:24;6.00;1.00
1055;DHT22;516;51.482;7.120;2023-04-03T18:48:11;5.90;1.00
1055;DHT22;516;51.482;7.120;2023-04-03T18:53:59;5.60;1.00
1055;DHT22;516;51.482;7.120;2023-04-03T18:59:47;5.50;1.00
1055;DHT22;516;51.482;7.120;2023-04-03T19:05:35;5.50;1.00
1055;DHT22;516;51.482;7.120;2023-04-03T19:08:20;5.40;1.00
1055;DHT22;516;51.482;7.120;2023-04-03T19:10:45;5.30;1.00
1055;DHT22;516;51.482;7.120;2023-04-03T19:16:33;5.30;1.00
1055;DHT22;516;51.482;7.120;2023-04-03T19:22:20;5.00;1.00
1055;DHT22;516;51.482;7.120;2023-04-03T19:28:08;5.20;1.00
1055;DHT22;516;51.482;7.120;2023-04-03T19:33:56;5.00;1.00
1055;DHT22;516;51.482;7.120;2023-04-03T19:39:44;4.80;1.00
1055;DHT22;516;51.482;7.120;2023-04-03T19:45:32;4.90;1.00
1055;DHT22;516;51.482;7.120;2023-04-03T19:51:20;4.90;1.00
1055;DHT22;516;51.482;7.120;2023-04-03T19:57:08;4.70;1.00
1055;DHT22;516;51.482;7.120;2023-04-03T20:02:56;4.70;1.10
1055;DHT22;516;51.482;7.120;2023-04-03T20:18:37;4.40;4.20
1055;DHT22;516;51.482;7.120;2023-04-03T20:24:24;4.30;5.10
1055;DHT22;516;51.482;7.120;2023-04-03T20:30:14;4.20;6.00
1055;DHT22;516;51.482;7.120;2023-04-03T20:36:02;4.20;8.10
1055;DHT22;516;51.482;7.120;2023-04-03T20:41:50;4.20;8.30
1055;DHT22;516;51.482;7.120;2023-04-03T20:47:38;4.20;8.40
1055;DHT22;516;51.482;7.120;2023-04-03T20:53:26;4.30;6.10
1055;DHT22;516;51.482;7.120;2023-04-03T20:59:15;4.10;6.80
1055;DHT22;516;51.482;7.120;2023-04-03T21:05:03;4.10;8.70
1055;DHT22;516;51.482;7.120;2023-04-03T21:23:16;4.00;7.90
1055;DHT22;516;51.482;7.120;2023-04-03T21:29:06;4.00;7.90
1055;DHT22;516;51.482;7.120;2023-04-03T21:34:56;3.70;10.70
1055;DHT22;516;51.482;7.120;2023-04-03T21:40:44;3.70;11.60
1055;DHT22;516;51.482;7.120;2023-04-03T21:46:33;3.60;13.00
1055;DHT22;516;51.482;7.120;2023-04-03T21:52:20;3.30;14.40
1055;DHT22;516;51.482;7.120;2023-04-03T21:58:08;3.10;17.60
1055;DHT22;516;51.482;7.120;2023-04-03T22:03:57;3.00;20.40
1055;DHT22;516;51.482;7.120;2023-04-03T22:13:07;2.60;26.80
1055;DHT22;516;51.482;7.120;2023-04-03T22:18:54;2.40;32.40
1055;DHT22;516;51.482;7.120;2023-04-03T22:24:45;2.20;40.10
1055;DHT22;516;51.482;7.120;2023-04-03T22:30:33;1.80;54.50
1055;DHT22;516;51.482;7.120;2023-04-03T22:36:20;1.50;77.10
1055;DHT22;516;51.482;7.120;2023-04-03T22:42:08;1.40;94.60
1055;DHT22;516;51.482;7.120;2023-04-03T22:47:56;1.20;97.30
1055;DHT22;516;51.482;7.120;2023-04-03T22:53:45;1.10;99.90
1055;DHT22;516;51.482;7.120;2023-04-03T22:59:32;1.10;99.90
1055;DHT22;516;51.482;7.120;2023-04-03T23:05:20;0.90;99.90
1055;DHT22;516;51.482;7.120;2023-04-03T23:11:18;0.50;99.90
1055;DHT22;516;51.482;7.120;2023-04-03T23:17:06;0.40;99.90
1055;DHT22;516;51.482;7.120;2023-04-03T23:22:53;0.30;99.90
1055;DHT22;516;51.482;7.120;2023-04-03T23:28:40;0.30;99.90
1055;DHT22;516;51.482;7.120;2023-04-03T23:34:27;0.30;99.90
1055;DHT22;516;51.482;7.120;2023-04-03T23:39:56;0.10;99.90
1055;DHT22;516;51.482;7.120;2023-04-03T23:45:45;0.00;99.90
1055;DHT22;516;51.482;7.120;2023-04-03T23:51:33;-0.20;99.90
1055;DHT22;516;51.482;7.120;2023-04-03T23:57:21;-0.20;99.90
